createdAt,value
2016-09-25T00:00:12.810Z,20.10
2016-09-25T00:01:12.914Z,20.10
2016-09-25T00:02:12.296Z,20.10
2016-09-25T00:03:09.523Z,20.10
2016-09-25T00:04:12.757Z,20.10
2016-09-25T00:05:09.774Z,20.10
2016-09-25T00:06:11.993Z,20.10
2016-09-25T00:07:12.730Z,20.10
2016-09-25T00:08:13.475Z,20.10
2016-09-25T00:09:12.898Z,20.10
2016-09-25T00:10:11.427Z,20.10
2016-09-25T00:11:09.833Z,20.10
2016-09-25T00:12:11.985Z,20.10
2016-09-25T00:13:11.899Z,20.10
2016-09-25T00:14:12.914Z,20.10
2016-09-25T00:15:12.259Z,20.10
2016-09-25T00:16:13.007Z,20.10
2016-09-25T00:17:09.433Z,20.20
2016-09-25T00:18:13.053Z,20.10
2016-09-25T00:19:11.859Z,20.10
2016-09-25T00:20:12.310Z,20.10
2016-09-25T00:21:11.979Z,20.10
2016-09-25T00:22:11.603Z,20.10
2016-09-25T00:23:12.025Z,20.10
2016-09-25T00:24:09.418Z,20.10
2016-09-25T00:25:09.875Z,20.10
2016-09-25T00:26:11.860Z,20.10
2016-09-25T00:27:13.214Z,20.10
2016-09-25T00:28:11.966Z,20.10
2016-09-25T00:29:13.367Z,20.10
2016-09-25T00:30:11.706Z,20.10
2016-09-25T00:31:11.178Z,20.10
2016-09-25T00:32:11.281Z,20.10
2016-09-25T00:33:12.870Z,20.10
2016-09-25T00:34:12.790Z,20.10
2016-09-25T00:35:12.890Z,20.10
2016-09-25T00:36:13.016Z,20.10
2016-09-25T00:37:09.011Z,20.10
2016-09-25T00:38:12.547Z,20.10
2016-09-25T00:39:13.366Z,20.10
2016-09-25T00:40:11.511Z,20.10
2016-09-25T00:41:11.909Z,20.10
2016-09-25T00:42:12.056Z,20.10
2016-09-25T00:43:13.620Z,20.10
2016-09-25T00:44:12.396Z,20.10
2016-09-25T00:45:12.549Z,20.10
2016-09-25T00:46:12.827Z,20.10
2016-09-25T00:47:10.928Z,20.10
2016-09-25T00:48:12.210Z,20.10
2016-09-25T00:49:12.269Z,20.10
2016-09-25T00:50:15.878Z,20.10
2016-09-25T00:51:14.594Z,20.10
2016-09-25T00:52:12.048Z,20.10
2016-09-25T00:53:11.293Z,20.10
2016-09-25T00:54:13.494Z,20.10
2016-09-25T00:55:12.786Z,20.10
2016-09-25T00:56:12.456Z,20.10
2016-09-25T00:57:12.592Z,20.10
2016-09-25T00:58:12.008Z,20.10
2016-09-25T00:59:11.913Z,20.10
2016-09-25T01:00:12.776Z,20.10
2016-09-25T01:01:09.599Z,20.10
2016-09-25T01:02:13.938Z,20.10
2016-09-25T01:03:09.070Z,20.10
2016-09-25T01:04:12.984Z,20.10
2016-09-25T01:05:12.377Z,20.10
2016-09-25T01:06:12.671Z,20.10
2016-09-25T01:07:13.989Z,20.10
2016-09-25T01:08:12.950Z,20.10
2016-09-25T01:09:12.399Z,20.10
2016-09-25T01:10:11.590Z,20.10
2016-09-25T01:11:12.969Z,20.10
2016-09-25T01:12:12.838Z,20.10
2016-09-25T01:13:11.345Z,20.10
2016-09-25T01:14:12.977Z,20.10
2016-09-25T01:15:14.549Z,20.10
2016-09-25T01:16:13.472Z,20.10
2016-09-25T01:17:12.375Z,20.10
2016-09-25T01:18:12.334Z,20.10
2016-09-25T01:19:11.675Z,20.10
2016-09-25T01:20:14.747Z,20.10
2016-09-25T01:21:12.914Z,20.10
2016-09-25T01:22:12.905Z,20.10
2016-09-25T01:23:12.456Z,20.10
2016-09-25T01:24:09.436Z,20.10
2016-09-25T01:25:11.710Z,20.10
2016-09-25T01:26:12.117Z,20.10
2016-09-25T01:27:13.105Z,20.10
2016-09-25T01:28:12.302Z,20.10
2016-09-25T01:29:12.249Z,20.10
2016-09-25T01:30:13.358Z,20.10
2016-09-25T01:31:09.849Z,20.10
2016-09-25T01:32:12.917Z,20.10
2016-09-25T01:33:11.802Z,20.10
2016-09-25T01:34:13.043Z,20.10
2016-09-25T01:35:12.443Z,20.10
2016-09-25T01:36:11.612Z,20.10
2016-09-25T01:37:11.767Z,20.10
2016-09-25T01:38:13.209Z,20.10
2016-09-25T01:39:13.811Z,20.10
2016-09-25T01:40:12.995Z,20.10
2016-09-25T01:41:11.376Z,20.10
2016-09-25T01:42:12.609Z,20.10
2016-09-25T01:43:12.849Z,20.10
2016-09-25T01:44:14.514Z,20.10
2016-09-25T01:45:11.671Z,20.10
2016-09-25T01:46:12.747Z,20.10
2016-09-25T01:47:13.185Z,20.10
2016-09-25T01:48:12.771Z,20.10
2016-09-25T01:49:09.366Z,20.10
2016-09-25T01:50:12.635Z,20.10
2016-09-25T01:51:15.646Z,20.10
2016-09-25T01:52:13.496Z,20.10
2016-09-25T01:53:14.090Z,20.10
2016-09-25T01:54:11.425Z,20.10
2016-09-25T01:55:12.185Z,20.10
2016-09-25T01:56:12.671Z,20.10
2016-09-25T01:57:12.713Z,20.10
2016-09-25T01:58:11.337Z,20.10
2016-09-25T01:59:12.323Z,20.10
2016-09-25T02:00:12.512Z,20.10
2016-09-25T02:01:12.662Z,20.10
2016-09-25T02:02:11.928Z,20.10
2016-09-25T02:03:11.749Z,20.10
2016-09-25T02:04:14.020Z,20.10
2016-09-25T02:05:14.397Z,20.10
2016-09-25T02:06:13.346Z,20.10
2016-09-25T02:07:13.990Z,20.10
2016-09-25T02:08:14.561Z,20.10
2016-09-25T02:09:11.704Z,20.10
2016-09-25T02:10:12.749Z,20.10
2016-09-25T02:11:08.970Z,20.10
2016-09-25T02:12:12.506Z,20.10
2016-09-25T02:13:12.418Z,20.10
2016-09-25T02:14:12.717Z,20.10
2016-09-25T02:15:12.928Z,20.10
2016-09-25T02:16:14.711Z,20.10
2016-09-25T02:17:13.668Z,20.10
2016-09-25T02:18:12.503Z,20.10
2016-09-25T02:19:11.521Z,20.10
2016-09-25T02:20:12.388Z,20.10
2016-09-25T02:21:11.654Z,20.10
2016-09-25T02:22:13.109Z,20.10
2016-09-25T02:23:13.170Z,20.10
2016-09-25T02:24:11.635Z,20.10
2016-09-25T02:25:12.887Z,20.10
2016-09-25T02:26:12.406Z,20.10
2016-09-25T02:27:12.940Z,20.10
2016-09-25T02:28:12.710Z,20.10
2016-09-25T02:29:10.356Z,20.10
2016-09-25T02:30:12.853Z,20.10
2016-09-25T02:31:12.504Z,20.10
2016-09-25T02:32:12.947Z,20.10
2016-09-25T02:33:11.480Z,20.10
2016-09-25T02:34:12.625Z,20.10
2016-09-25T02:35:12.990Z,20.10
2016-09-25T02:36:12.972Z,20.10
2016-09-25T02:37:09.966Z,20.10
2016-09-25T02:38:12.524Z,20.10
2016-09-25T02:39:12.185Z,20.10
2016-09-25T02:40:13.307Z,20.10
2016-09-25T02:41:13.270Z,20.10
2016-09-25T02:42:13.522Z,20.10
2016-09-25T02:43:12.695Z,20.10
2016-09-25T02:44:11.380Z,20.10
2016-09-25T02:45:12.414Z,20.10
2016-09-25T02:46:12.552Z,20.10
2016-09-25T02:47:14.603Z,20.10
2016-09-25T02:48:14.233Z,20.10
2016-09-25T02:49:09.117Z,20.10
2016-09-25T02:50:12.392Z,20.10
2016-09-25T02:51:10.098Z,20.10
2016-09-25T02:52:12.664Z,20.10
2016-09-25T02:53:08.823Z,20.10
2016-09-25T02:54:12.253Z,20.10
2016-09-25T02:55:11.361Z,20.10
2016-09-25T02:56:13.709Z,20.10
2016-09-25T02:57:12.366Z,20.10
2016-09-25T02:58:12.539Z,20.10
2016-09-25T02:59:11.556Z,20.10
2016-09-25T03:00:12.674Z,20.10
2016-09-25T03:01:11.798Z,20.10
2016-09-25T03:02:12.201Z,20.10
2016-09-25T03:03:12.913Z,20.10
2016-09-25T03:04:12.440Z,20.10
2016-09-25T03:05:11.823Z,20.10
2016-09-25T03:06:12.943Z,20.10
2016-09-25T03:07:11.809Z,20.10
2016-09-25T03:08:11.417Z,20.10
2016-09-25T03:09:11.819Z,20.10
2016-09-25T03:10:12.370Z,20.10
2016-09-25T03:11:13.431Z,20.10
2016-09-25T03:12:09.651Z,20.10
2016-09-25T03:13:13.185Z,20.10
2016-09-25T03:14:13.694Z,20.10
2016-09-25T03:15:12.384Z,20.10
2016-09-25T03:16:12.968Z,20.10
2016-09-25T03:17:12.135Z,20.10
2016-09-25T03:18:12.092Z,20.10
2016-09-25T03:19:12.497Z,20.10
2016-09-25T03:20:13.945Z,20.10
2016-09-25T03:21:12.588Z,20.10
2016-09-25T03:22:11.511Z,20.10
2016-09-25T03:23:11.963Z,20.10
2016-09-25T03:24:13.044Z,20.10
2016-09-25T03:25:11.463Z,20.10
2016-09-25T03:26:13.224Z,20.10
2016-09-25T03:27:13.113Z,20.10
2016-09-25T03:28:12.074Z,20.10
2016-09-25T03:29:13.243Z,20.10
2016-09-25T03:30:11.854Z,20.10
2016-09-25T03:31:12.242Z,20.10
2016-09-25T03:32:12.862Z,20.10
2016-09-25T03:33:12.493Z,20.10
2016-09-25T03:34:09.709Z,20.10
2016-09-25T03:35:12.742Z,20.10
2016-09-25T03:36:12.436Z,20.10
2016-09-25T03:37:12.189Z,20.10
2016-09-25T03:38:13.116Z,20.10
2016-09-25T03:39:12.403Z,20.10
2016-09-25T03:40:09.566Z,20.10
2016-09-25T03:41:12.443Z,20.10
2016-09-25T03:42:11.148Z,20.10
2016-09-25T03:43:12.114Z,20.10
2016-09-25T03:44:11.883Z,20.10
2016-09-25T03:45:13.461Z,20.10
2016-09-25T03:46:12.749Z,20.10
2016-09-25T03:47:11.537Z,20.10
2016-09-25T03:48:12.180Z,20.10
2016-09-25T03:49:12.332Z,20.10
2016-09-25T03:50:12.176Z,20.10
2016-09-25T03:51:12.757Z,20.10
2016-09-25T03:52:12.147Z,20.10
2016-09-25T03:53:12.862Z,20.10
2016-09-25T03:54:09.584Z,20.10
2016-09-25T03:55:13.083Z,20.10
2016-09-25T03:56:11.586Z,20.10
2016-09-25T03:57:12.964Z,20.10
2016-09-25T03:58:13.280Z,20.10
2016-09-25T03:59:12.450Z,20.10
2016-09-25T04:00:12.267Z,20.10
2016-09-25T04:01:10.347Z,20.10
2016-09-25T04:02:11.571Z,20.10
2016-09-25T04:03:14.010Z,20.10
2016-09-25T04:04:09.694Z,20.10
2016-09-25T04:05:12.597Z,20.10
2016-09-25T04:06:14.359Z,20.10
2016-09-25T04:07:12.337Z,20.10
2016-09-25T04:08:11.544Z,20.10
2016-09-25T04:09:12.315Z,20.10
2016-09-25T04:10:12.560Z,20.10
2016-09-25T04:11:12.345Z,20.10
2016-09-25T04:12:12.008Z,20.10
2016-09-25T04:13:11.891Z,20.10
2016-09-25T04:14:12.566Z,20.10
2016-09-25T04:15:12.122Z,20.10
2016-09-25T04:16:12.073Z,20.10
2016-09-25T04:17:11.574Z,20.10
2016-09-25T04:18:09.896Z,20.10
2016-09-25T04:19:12.161Z,20.10
2016-09-25T04:20:12.993Z,20.10
2016-09-25T04:21:11.694Z,20.10
2016-09-25T04:22:11.809Z,20.10
2016-09-25T04:23:10.123Z,20.10
2016-09-25T04:24:11.945Z,20.10
2016-09-25T04:25:15.886Z,20.10
2016-09-25T04:26:15.689Z,20.10
2016-09-25T04:27:16.059Z,20.10
2016-09-25T04:28:13.434Z,20.10
2016-09-25T04:29:12.290Z,20.10
2016-09-25T04:30:11.855Z,20.10
2016-09-25T04:31:12.681Z,20.10
2016-09-25T04:32:12.774Z,20.10
2016-09-25T04:33:12.998Z,20.10
2016-09-25T04:34:12.335Z,20.10
2016-09-25T04:35:12.460Z,20.10
2016-09-25T04:36:10.131Z,20.10
2016-09-25T04:37:11.655Z,20.10
2016-09-25T04:38:12.436Z,20.10
2016-09-25T04:39:12.753Z,20.10
2016-09-25T04:40:11.584Z,20.10
2016-09-25T04:41:13.263Z,20.10
2016-09-25T04:42:11.903Z,20.10
2016-09-25T04:43:12.227Z,20.10
2016-09-25T04:44:09.540Z,20.10
2016-09-25T04:45:12.002Z,20.10
2016-09-25T04:46:12.039Z,20.10
2016-09-25T04:47:12.084Z,20.10
2016-09-25T04:48:12.797Z,20.10
2016-09-25T04:49:12.294Z,20.10
2016-09-25T04:50:13.041Z,20.10
2016-09-25T04:51:13.474Z,20.10
2016-09-25T04:52:12.262Z,20.10
2016-09-25T04:53:12.028Z,20.10
2016-09-25T04:54:12.375Z,20.10
2016-09-25T04:55:12.301Z,20.10
2016-09-25T04:56:13.242Z,20.10
2016-09-25T04:57:12.455Z,20.10
2016-09-25T04:58:12.261Z,20.10
2016-09-25T04:59:11.577Z,20.10
2016-09-25T05:00:11.878Z,20.10
2016-09-25T05:01:12.130Z,20.10
2016-09-25T05:02:12.691Z,20.10
2016-09-25T05:03:12.188Z,20.10
2016-09-25T05:04:12.748Z,20.10
2016-09-25T05:05:12.384Z,20.10
2016-09-25T05:06:12.347Z,20.10
2016-09-25T05:07:12.340Z,20.10
2016-09-25T05:08:09.767Z,20.10
2016-09-25T05:09:12.579Z,20.10
2016-09-25T05:10:12.161Z,20.10
2016-09-25T05:11:12.043Z,20.10
2016-09-25T05:12:11.852Z,20.10
2016-09-25T05:13:12.087Z,20.10
2016-09-25T05:14:11.983Z,20.10
2016-09-25T05:15:12.053Z,20.10
2016-09-25T05:16:15.229Z,20.10
2016-09-25T05:17:12.561Z,20.10
2016-09-25T05:18:13.065Z,20.10
2016-09-25T05:19:12.650Z,20.10
2016-09-25T05:20:11.775Z,20.10
2016-09-25T05:21:12.157Z,20.20
2016-09-25T05:22:13.144Z,20.10
2016-09-25T05:23:12.392Z,20.20
2016-09-25T05:24:12.364Z,20.20
2016-09-25T05:25:12.829Z,20.20
2016-09-25T05:26:12.414Z,20.10
2016-09-25T05:27:11.764Z,20.20
2016-09-25T05:28:12.988Z,20.20
2016-09-25T05:29:12.660Z,20.30
2016-09-25T05:30:15.004Z,20.30
2016-09-25T05:31:12.361Z,20.30
2016-09-25T05:32:09.617Z,20.30
2016-09-25T05:33:13.066Z,20.30
2016-09-25T05:34:12.395Z,20.30
2016-09-25T05:35:11.989Z,20.30
2016-09-25T05:36:11.634Z,20.30
2016-09-25T05:37:13.263Z,20.30
2016-09-25T05:38:11.594Z,20.40
2016-09-25T05:39:12.655Z,20.40
2016-09-25T05:40:11.904Z,20.40
2016-09-25T05:41:12.601Z,20.40
2016-09-25T05:42:11.322Z,20.40
2016-09-25T05:43:12.424Z,20.40
2016-09-25T05:44:11.959Z,20.40
2016-09-25T05:45:11.352Z,20.40
2016-09-25T05:46:13.705Z,20.40
2016-09-25T05:47:11.963Z,20.40
2016-09-25T05:48:13.746Z,20.40
2016-09-25T05:49:13.184Z,20.50
2016-09-25T05:50:12.485Z,20.50
2016-09-25T05:51:12.715Z,20.50
2016-09-25T05:52:11.606Z,20.50
2016-09-25T05:53:12.650Z,20.50
2016-09-25T05:54:11.682Z,20.50
2016-09-25T05:55:12.795Z,20.50
2016-09-25T05:56:12.505Z,20.50
2016-09-25T05:57:10.960Z,20.50
2016-09-25T05:58:12.372Z,20.50
2016-09-25T05:59:12.461Z,20.50
2016-09-25T06:00:12.993Z,20.50
2016-09-25T06:01:12.529Z,20.50
2016-09-25T06:02:14.129Z,20.50
2016-09-25T06:03:12.032Z,20.50
2016-09-25T06:04:11.992Z,20.50
2016-09-25T06:05:12.302Z,20.50
2016-09-25T06:06:11.980Z,20.50
2016-09-25T06:07:12.125Z,20.50
2016-09-25T06:08:12.048Z,20.50
2016-09-25T06:09:13.794Z,20.50
2016-09-25T06:10:12.545Z,20.50
2016-09-25T06:11:11.381Z,20.50
2016-09-25T06:12:12.475Z,20.50
2016-09-25T06:13:12.393Z,20.50
2016-09-25T06:14:11.919Z,20.50
2016-09-25T06:15:12.074Z,20.50
2016-09-25T06:16:12.283Z,20.50
2016-09-25T06:17:12.141Z,20.50
2016-09-25T06:18:12.178Z,20.50
2016-09-25T06:19:12.019Z,20.50
2016-09-25T06:20:12.755Z,20.60
2016-09-25T06:21:12.033Z,20.50
2016-09-25T06:22:11.291Z,20.50
2016-09-25T06:23:11.649Z,20.60
2016-09-25T06:24:11.912Z,20.60
2016-09-25T06:25:11.958Z,20.60
2016-09-25T06:26:11.685Z,20.60
2016-09-25T06:27:13.060Z,20.60
2016-09-25T06:28:11.760Z,20.60
2016-09-25T06:29:13.652Z,20.60
2016-09-25T06:30:12.207Z,20.60
2016-09-25T06:31:11.981Z,20.60
2016-09-25T06:32:13.300Z,20.60
2016-09-25T06:33:12.795Z,20.60
2016-09-25T06:34:11.324Z,20.60
2016-09-25T06:35:13.701Z,20.60
2016-09-25T06:36:11.946Z,20.60
2016-09-25T06:37:12.097Z,20.60
2016-09-25T06:38:12.077Z,20.60
2016-09-25T06:39:13.960Z,20.50
2016-09-25T06:40:14.019Z,20.50
2016-09-25T06:41:12.188Z,20.50
2016-09-25T06:42:13.096Z,20.60
2016-09-25T06:43:12.046Z,20.60
2016-09-25T06:44:11.955Z,20.50
2016-09-25T06:45:12.528Z,20.60
2016-09-25T06:46:11.536Z,20.60
2016-09-25T06:47:12.478Z,20.60
2016-09-25T06:48:11.693Z,20.60
2016-09-25T06:49:12.071Z,20.60
2016-09-25T06:50:11.846Z,20.60
2016-09-25T06:51:09.903Z,20.60
2016-09-25T06:52:12.015Z,20.50
2016-09-25T06:53:13.641Z,20.50
2016-09-25T06:54:13.073Z,20.50
2016-09-25T06:55:11.679Z,20.50
2016-09-25T06:56:12.002Z,20.50
2016-09-25T06:57:11.817Z,20.50
2016-09-25T06:58:12.974Z,20.50
2016-09-25T06:59:12.906Z,20.50
2016-09-25T07:00:12.164Z,20.50
2016-09-25T07:01:12.963Z,20.50
2016-09-25T07:02:11.867Z,20.50
2016-09-25T07:03:11.796Z,20.50
2016-09-25T07:04:11.352Z,20.40
2016-09-25T07:05:09.472Z,20.50
2016-09-25T07:06:11.487Z,20.40
2016-09-25T07:07:12.711Z,20.40
2016-09-25T07:08:12.476Z,20.40
2016-09-25T07:09:12.147Z,20.40
2016-09-25T07:10:09.649Z,20.40
2016-09-25T07:11:13.847Z,20.40
2016-09-25T07:12:12.382Z,20.50
2016-09-25T07:13:12.095Z,20.50
2016-09-25T07:14:12.077Z,20.60
2016-09-25T07:15:12.102Z,20.70
2016-09-25T07:16:12.786Z,20.80
2016-09-25T07:17:13.167Z,20.90
2016-09-25T07:18:11.435Z,20.80
2016-09-25T07:19:12.326Z,20.80
2016-09-25T07:20:11.568Z,20.80
2016-09-25T07:21:11.795Z,20.80
2016-09-25T07:22:11.527Z,20.80
2016-09-25T07:23:12.776Z,20.80
2016-09-25T07:24:12.248Z,20.80
2016-09-25T07:25:13.898Z,20.70
2016-09-25T07:26:11.606Z,20.70
2016-09-25T07:27:12.005Z,20.70
2016-09-25T07:28:12.359Z,20.70
2016-09-25T07:29:12.044Z,20.70
2016-09-25T07:30:12.493Z,20.70
2016-09-25T07:31:12.891Z,20.70
2016-09-25T07:32:12.608Z,20.60
2016-09-25T07:33:16.678Z,20.70
2016-09-25T07:34:13.448Z,20.60
2016-09-25T07:35:12.376Z,20.60
2016-09-25T07:36:12.435Z,20.60
2016-09-25T07:37:11.701Z,20.60
2016-09-25T07:38:13.453Z,20.60
2016-09-25T07:39:12.289Z,20.60
2016-09-25T07:40:12.471Z,20.60
2016-09-25T07:41:12.325Z,20.60
2016-09-25T07:42:13.723Z,20.60
2016-09-25T07:43:12.373Z,20.60
2016-09-25T07:44:11.090Z,20.60
2016-09-25T07:45:11.786Z,20.60
2016-09-25T07:46:11.403Z,20.60
2016-09-25T07:47:12.887Z,20.60
2016-09-25T07:48:13.205Z,20.60
2016-09-25T07:49:12.582Z,20.60
2016-09-25T07:50:11.859Z,20.60
2016-09-25T07:51:12.826Z,20.60
2016-09-25T07:52:14.484Z,20.60
2016-09-25T07:53:14.332Z,20.60
2016-09-25T07:54:11.249Z,20.60
2016-09-25T07:55:11.930Z,20.60
2016-09-25T07:56:09.772Z,20.60
2016-09-25T07:57:12.299Z,20.60
2016-09-25T07:58:08.930Z,20.60
2016-09-25T07:59:12.052Z,20.60
2016-09-25T08:00:12.544Z,20.60
2016-09-25T08:01:12.668Z,20.60
2016-09-25T08:02:11.438Z,20.60
2016-09-25T08:03:12.874Z,20.70
2016-09-25T08:04:13.633Z,20.70
2016-09-25T08:05:11.434Z,20.70
2016-09-25T08:06:11.834Z,20.70
2016-09-25T08:07:12.433Z,20.70
2016-09-25T08:08:11.503Z,20.70
2016-09-25T08:09:12.432Z,20.70
2016-09-25T08:10:12.705Z,20.70
2016-09-25T08:11:11.971Z,20.70
2016-09-25T08:12:11.478Z,20.70
2016-09-25T08:13:12.942Z,20.70
2016-09-25T08:14:11.793Z,20.70
2016-09-25T08:15:11.157Z,20.70
2016-09-25T08:16:12.301Z,20.70
2016-09-25T08:17:11.431Z,20.70
2016-09-25T08:18:12.628Z,20.70
2016-09-25T08:19:14.207Z,20.70
2016-09-25T08:20:11.811Z,20.70
2016-09-25T08:21:12.196Z,20.70
2016-09-25T08:22:10.433Z,20.70
2016-09-25T08:23:11.874Z,20.70
2016-09-25T08:24:11.477Z,20.70
2016-09-25T08:25:13.033Z,20.70
2016-09-25T08:26:10.013Z,20.70
2016-09-25T08:27:13.477Z,20.70
2016-09-25T08:28:11.779Z,20.70
2016-09-25T08:29:11.609Z,20.70
2016-09-25T08:30:11.619Z,20.70
2016-09-25T08:31:11.736Z,20.70
2016-09-25T08:32:11.601Z,20.70
2016-09-25T08:33:13.796Z,20.70
2016-09-25T08:34:11.464Z,20.70
2016-09-25T08:35:12.133Z,20.70
2016-09-25T08:36:11.484Z,20.70
2016-09-25T08:37:12.481Z,20.70
2016-09-25T08:38:11.523Z,20.70
2016-09-25T08:39:12.197Z,20.70
2016-09-25T08:40:11.584Z,20.70
2016-09-25T08:41:11.669Z,20.70
2016-09-25T08:42:11.836Z,20.70
2016-09-25T08:43:11.182Z,20.60
2016-09-25T08:44:14.837Z,20.60
2016-09-25T08:45:13.009Z,20.60
2016-09-25T08:46:14.042Z,20.60
2016-09-25T08:47:11.028Z,20.60
2016-09-25T08:48:14.085Z,20.60
2016-09-25T08:49:11.983Z,20.60
2016-09-25T08:50:11.940Z,20.60
2016-09-25T08:51:12.556Z,20.60
2016-09-25T08:52:08.537Z,20.60
2016-09-25T08:53:09.666Z,20.60
2016-09-25T08:54:12.225Z,20.60
2016-09-25T08:55:11.591Z,20.60
2016-09-25T08:56:11.893Z,20.60
2016-09-25T08:57:14.964Z,20.60
2016-09-25T08:58:13.039Z,20.60
2016-09-25T08:59:09.525Z,20.60
2016-09-25T09:00:13.493Z,20.60
2016-09-25T09:01:10.542Z,20.60
2016-09-25T09:02:13.134Z,20.60
2016-09-25T09:03:09.227Z,20.60
2016-09-25T09:04:12.238Z,20.60
2016-09-25T09:05:12.953Z,20.60
2016-09-25T09:06:11.980Z,20.60
2016-09-25T09:07:11.544Z,20.60
2016-09-25T09:08:11.908Z,20.60
2016-09-25T09:09:11.213Z,20.60
2016-09-25T09:10:11.538Z,20.60
2016-09-25T09:11:12.176Z,20.60
2016-09-25T09:12:11.514Z,20.60
2016-09-25T09:13:12.903Z,20.60
2016-09-25T09:14:11.278Z,20.60
2016-09-25T09:15:13.003Z,20.60
2016-09-25T09:16:11.606Z,20.60
2016-09-25T09:17:09.701Z,20.60
2016-09-25T09:18:11.442Z,20.60
2016-09-25T09:19:12.274Z,20.60
2016-09-25T09:20:11.857Z,20.60
2016-09-25T09:21:12.687Z,20.60
2016-09-25T09:22:13.572Z,20.60
2016-09-25T09:23:12.499Z,20.60
2016-09-25T09:24:11.942Z,20.60
2016-09-25T09:25:11.287Z,20.60
2016-09-25T09:26:12.913Z,20.60
2016-09-25T09:27:14.258Z,20.60
2016-09-25T09:28:12.194Z,20.60
2016-09-25T09:29:11.891Z,20.60
2016-09-25T09:30:11.997Z,20.60
2016-09-25T09:31:12.442Z,20.60
2016-09-25T09:32:11.887Z,20.60
2016-09-25T09:33:11.720Z,20.50
2016-09-25T09:34:11.619Z,20.60
2016-09-25T09:35:09.622Z,20.60
2016-09-25T09:36:12.070Z,20.50
2016-09-25T09:37:11.220Z,20.50
2016-09-25T09:38:11.597Z,20.60
2016-09-25T09:39:12.823Z,20.50
2016-09-25T09:40:12.407Z,20.60
2016-09-25T09:41:12.050Z,20.50
2016-09-25T09:42:13.604Z,20.50
2016-09-25T09:43:12.603Z,20.50
2016-09-25T09:44:12.789Z,20.50
2016-09-25T09:45:12.582Z,20.50
2016-09-25T09:46:12.034Z,20.50
2016-09-25T09:47:12.932Z,20.50
2016-09-25T09:48:11.576Z,20.50
2016-09-25T09:49:12.337Z,20.50
2016-09-25T09:50:13.011Z,20.50
2016-09-25T09:51:12.699Z,20.60
2016-09-25T09:52:12.564Z,20.50
2016-09-25T09:53:08.795Z,20.50
2016-09-25T09:54:11.988Z,20.50
2016-09-25T09:55:12.316Z,20.50
2016-09-25T09:56:12.313Z,20.50
2016-09-25T09:57:12.900Z,20.50
2016-09-25T09:58:12.014Z,20.60
2016-09-25T09:59:11.603Z,20.50
2016-09-25T10:00:13.985Z,20.50
2016-09-25T10:01:11.799Z,20.50
2016-09-25T10:02:11.275Z,20.50
2016-09-25T10:03:11.598Z,20.50
2016-09-25T10:04:11.572Z,20.50
2016-09-25T10:05:13.232Z,20.50
2016-09-25T10:06:12.604Z,20.60
2016-09-25T10:07:12.128Z,20.50
2016-09-25T10:08:12.070Z,20.50
2016-09-25T10:09:12.968Z,20.50
2016-09-25T10:10:09.830Z,20.60
2016-09-25T10:11:12.613Z,20.50
2016-09-25T10:12:11.300Z,20.50
2016-09-25T10:13:12.284Z,20.50
2016-09-25T10:14:12.210Z,20.50
2016-09-25T10:15:11.610Z,20.50
2016-09-25T10:16:12.090Z,20.50
2016-09-25T10:17:09.400Z,20.60
2016-09-25T10:18:11.596Z,20.50
2016-09-25T10:19:13.744Z,20.50
2016-09-25T10:20:11.935Z,20.50
2016-09-25T10:21:11.919Z,20.60
2016-09-25T10:22:11.352Z,20.60
2016-09-25T10:23:12.994Z,20.50
2016-09-25T10:24:11.623Z,20.50
2016-09-25T10:25:09.992Z,20.60
2016-09-25T10:26:10.322Z,20.50
2016-09-25T10:27:12.019Z,20.60
2016-09-25T10:28:11.624Z,20.50
2016-09-25T10:29:12.025Z,20.50
2016-09-25T10:30:12.343Z,20.60
2016-09-25T10:31:11.461Z,20.50
2016-09-25T10:32:13.650Z,20.60
2016-09-25T10:33:12.048Z,20.50
2016-09-25T10:34:13.047Z,20.50
2016-09-25T10:35:13.014Z,20.60
2016-09-25T10:36:12.606Z,20.50
2016-09-25T10:37:08.434Z,20.60
2016-09-25T10:38:11.039Z,20.50
2016-09-25T10:39:11.313Z,20.50
2016-09-25T10:40:12.066Z,20.60
2016-09-25T10:41:11.627Z,20.60
2016-09-25T10:42:11.359Z,20.60
2016-09-25T10:43:11.653Z,20.60
2016-09-25T10:44:11.407Z,20.60
2016-09-25T10:45:11.973Z,20.50
2016-09-25T10:46:12.061Z,20.60
2016-09-25T10:47:12.640Z,20.50
2016-09-25T10:48:12.483Z,20.50
2016-09-25T10:49:12.198Z,20.60
2016-09-25T10:50:11.657Z,20.60
2016-09-25T10:51:14.184Z,20.60
2016-09-25T10:52:11.391Z,20.60
2016-09-25T10:53:11.672Z,20.50
2016-09-25T10:54:11.790Z,20.60
2016-09-25T10:55:12.190Z,20.60
2016-09-25T10:56:12.930Z,20.60
2016-09-25T10:57:11.329Z,20.60
2016-09-25T10:58:11.682Z,20.60
2016-09-25T10:59:12.840Z,20.60
2016-09-25T11:00:12.327Z,20.60
2016-09-25T11:01:11.406Z,20.60
2016-09-25T11:02:11.417Z,20.60
2016-09-25T11:03:12.393Z,20.60
2016-09-25T11:04:12.086Z,20.60
2016-09-25T11:05:12.340Z,20.60
2016-09-25T11:06:11.674Z,20.60
2016-09-25T11:07:12.532Z,20.60
2016-09-25T11:08:12.409Z,20.60
2016-09-25T11:09:12.061Z,20.60
2016-09-25T11:10:12.682Z,20.60
2016-09-25T11:11:14.171Z,20.60
2016-09-25T11:12:14.936Z,20.60
2016-09-25T11:13:12.405Z,20.60
2016-09-25T11:14:12.700Z,20.60
2016-09-25T11:15:12.712Z,20.60
2016-09-25T11:16:11.737Z,20.60
2016-09-25T11:17:12.789Z,20.60
2016-09-25T11:18:13.220Z,20.60
2016-09-25T11:19:12.334Z,20.60
2016-09-25T11:20:12.464Z,20.60
2016-09-25T11:21:12.867Z,20.60
2016-09-25T11:22:09.916Z,20.60
2016-09-25T11:23:11.757Z,20.60
2016-09-25T11:24:11.397Z,20.60
2016-09-25T11:25:13.070Z,20.60
2016-09-25T11:26:12.325Z,20.60
2016-09-25T11:27:11.777Z,20.60
2016-09-25T11:28:13.139Z,20.60
2016-09-25T11:29:12.435Z,20.60
2016-09-25T11:30:12.600Z,20.60
2016-09-25T11:31:13.470Z,20.60
2016-09-25T11:32:12.647Z,20.60
2016-09-25T11:33:12.573Z,20.60
2016-09-25T11:34:11.500Z,20.60
2016-09-25T11:35:11.492Z,20.60
2016-09-25T11:36:13.705Z,20.60
2016-09-25T11:37:12.901Z,20.60
2016-09-25T11:38:09.290Z,20.60
2016-09-25T11:39:12.961Z,20.60
2016-09-25T11:40:11.573Z,20.50
2016-09-25T11:41:11.451Z,20.50
2016-09-25T11:42:12.419Z,20.40
2016-09-25T11:43:12.900Z,20.40
2016-09-25T11:44:09.736Z,20.40
2016-09-25T11:45:11.066Z,20.40
2016-09-25T11:46:11.806Z,20.40
2016-09-25T11:47:12.952Z,20.40
2016-09-25T11:48:11.421Z,20.40
2016-09-25T11:49:12.081Z,20.40
2016-09-25T11:50:12.350Z,20.30
2016-09-25T11:51:12.774Z,20.40
2016-09-25T11:52:13.230Z,20.40
2016-09-25T11:53:13.116Z,20.30
2016-09-25T11:54:12.171Z,20.40
2016-09-25T11:55:13.901Z,20.40
2016-09-25T11:56:12.416Z,20.40
2016-09-25T11:57:11.468Z,20.30
2016-09-25T11:58:11.446Z,20.30
2016-09-25T11:59:12.260Z,20.30
2016-09-25T12:00:11.089Z,20.30
2016-09-25T12:01:11.638Z,20.30
2016-09-25T12:02:13.829Z,20.40
2016-09-25T12:03:12.188Z,20.30
2016-09-25T12:04:14.133Z,20.30
2016-09-25T12:05:11.269Z,20.40
2016-09-25T12:06:11.448Z,20.40
2016-09-25T12:07:11.741Z,20.30
2016-09-25T12:08:11.998Z,20.30
2016-09-25T12:09:12.326Z,20.30
2016-09-25T12:10:14.357Z,20.30
2016-09-25T12:11:11.504Z,20.40
2016-09-25T12:12:11.037Z,20.30
2016-09-25T12:13:11.838Z,20.30
2016-09-25T12:14:12.724Z,20.40
2016-09-25T12:15:13.423Z,20.40
2016-09-25T12:16:11.619Z,20.40
2016-09-25T12:17:12.659Z,20.40
2016-09-25T12:18:11.152Z,20.40
2016-09-25T12:19:12.095Z,20.40
2016-09-25T12:20:12.339Z,20.40
2016-09-25T12:21:12.571Z,20.40
2016-09-25T12:22:12.448Z,20.30
2016-09-25T12:23:10.285Z,20.30
2016-09-25T12:24:11.110Z,20.30
2016-09-25T12:25:12.453Z,20.40
2016-09-25T12:26:11.959Z,20.40
2016-09-25T12:27:09.113Z,20.40
2016-09-25T12:28:10.045Z,20.40
2016-09-25T12:29:11.810Z,20.40
2016-09-25T12:30:11.845Z,20.40
2016-09-25T12:31:11.792Z,20.40
2016-09-25T12:32:11.075Z,20.40
2016-09-25T12:33:11.937Z,20.40
2016-09-25T12:34:11.152Z,20.40
2016-09-25T12:35:12.944Z,20.40
2016-09-25T12:36:11.009Z,20.40
2016-09-25T12:37:12.949Z,20.40
2016-09-25T12:38:11.327Z,20.40
2016-09-25T12:39:11.790Z,20.30
2016-09-25T12:40:11.115Z,20.40
2016-09-25T12:41:12.569Z,20.40
2016-09-25T12:42:11.907Z,20.40
2016-09-25T12:43:12.257Z,20.40
2016-09-25T12:44:11.494Z,20.30
2016-09-25T12:45:09.963Z,20.40
2016-09-25T12:46:11.560Z,20.40
2016-09-25T12:47:12.247Z,20.30
2016-09-25T12:48:11.097Z,20.30
2016-09-25T12:49:12.960Z,20.30
2016-09-25T12:50:12.155Z,20.30
2016-09-25T12:51:13.363Z,20.40
2016-09-25T12:52:11.061Z,20.40